NSZ830 EDDC-ESSA
Flight info
| Callsign | NSZ830 |
|---|---|
| Flight time | N/A |
| Altitude | 34000 |
| Route | ABKIS4W/22 ABKIS L132 EKPEK DCT BODLA/N0455F350 DCT DEMUR DCT GORPI DCT ARMOD Z228 NILUG |
| Aircraft | B738/M-SDE2E3FGHIRWXY/LB1 |
Departure
| Time | 2026-05-06 11:24 |
|---|---|
| Airport | Dresden Airport (EDDC) |
Arrival
| Time | N/A |
|---|---|
| Airport | Stockholm-Arlanda Airport (ESSA) |
| Time | Latitude | Longitude | Altitude | Speed | Heading |
|---|---|---|---|---|---|
| 2026-05-06 11:06 | 51.12567 | 13.76672 | 748 ft | 0 kts | 221° |
| 2026-05-06 11:15 | 51.12579 | 13.76688 | 750 ft | 4 kts | 221° |
| 2026-05-06 11:15 | 51.12594 | 13.76710 | 750 ft | 3 kts | 221° |
| 2026-05-06 11:15 | 51.12615 | 13.76738 | 748 ft | 4 kts | 221° |
| 2026-05-06 11:16 | 51.12635 | 13.76766 | 747 ft | 4 kts | 221° |
| 2026-05-06 11:16 | 51.12637 | 13.76764 | 747 ft | 4 kts | 240° |
| 2026-05-06 11:16 | 51.12643 | 13.76729 | 750 ft | 4 kts | 299° |
| 2026-05-06 11:16 | 51.12656 | 13.76705 | 750 ft | 0 kts | 311° |
| 2026-05-06 11:19 | 51.12660 | 13.76696 | 751 ft | 2 kts | 311° |
| 2026-05-06 11:19 | 51.12682 | 13.76656 | 751 ft | 7 kts | 311° |
| 2026-05-06 11:19 | 51.12727 | 13.76573 | 749 ft | 12 kts | 310° |
| 2026-05-06 11:20 | 51.12783 | 13.76468 | 752 ft | 12 kts | 311° |
| 2026-05-06 11:20 | 51.12843 | 13.76460 | 751 ft | 9 kts | 34° |
| 2026-05-06 11:20 | 51.12901 | 13.76546 | 750 ft | 13 kts | 40° |
| 2026-05-06 11:20 | 51.12988 | 13.76664 | 748 ft | 19 kts | 40° |
| 2026-05-06 11:21 | 51.13103 | 13.76822 | 746 ft | 25 kts | 40° |
| 2026-05-06 11:21 | 51.13254 | 13.77029 | 743 ft | 32 kts | 40° |
| 2026-05-06 11:21 | 51.13442 | 13.77288 | 731 ft | 40 kts | 41° |
| 2026-05-06 11:21 | 51.13671 | 13.77602 | 715 ft | 43 kts | 40° |
| 2026-05-06 11:22 | 51.13870 | 13.77877 | 714 ft | 38 kts | 41° |
| 2026-05-06 11:22 | 51.14055 | 13.78133 | 715 ft | 29 kts | 41° |
| 2026-05-06 11:22 | 51.14191 | 13.78321 | 707 ft | 23 kts | 40° |
| 2026-05-06 11:22 | 51.14295 | 13.78294 | 703 ft | 17 kts | 310° |
| 2026-05-06 11:23 | 51.14374 | 13.78153 | 703 ft | 10 kts | 306° |
| 2026-05-06 11:23 | 51.14347 | 13.78058 | 704 ft | 11 kts | 220° |
| 2026-05-06 11:23 | 51.14186 | 13.77834 | 712 ft | 63 kts | 221° |
| 2026-05-06 11:23 | 51.13695 | 13.77158 | 730 ft | 124 kts | 221° |
| 2026-05-06 11:24 | 51.12923 | 13.76099 | 909 ft | 158 kts | 222° |
| 2026-05-06 11:24 | 51.12025 | 13.74980 | 1510 ft | 173 kts | 223° |
| 2026-05-06 11:24 | 51.11073 | 13.73752 | 2291 ft | 173 kts | 223° |
| 2026-05-06 11:24 | 51.10200 | 13.72504 | 3136 ft | 174 kts | 226° |
| 2026-05-06 11:25 | 51.09266 | 13.71066 | 3450 ft | 199 kts | 226° |
| 2026-05-06 11:25 | 51.08210 | 13.69440 | 3676 ft | 221 kts | 225° |
| 2026-05-06 11:25 | 51.07167 | 13.67617 | 4184 ft | 228 kts | 240° |
| 2026-05-06 11:25 | 51.06494 | 13.65333 | 4795 ft | 230 kts | 246° |
| 2026-05-06 11:26 | 51.05821 | 13.62982 | 5370 ft | 233 kts | 244° |
| 2026-05-06 11:26 | 51.05113 | 13.60568 | 5800 ft | 250 kts | 244° |
| 2026-05-06 11:26 | 51.04369 | 13.58067 | 6439 ft | 254 kts | 244° |
| 2026-05-06 11:26 | 51.03598 | 13.55503 | 6841 ft | 257 kts | 243° |
| 2026-05-06 11:27 | 51.02821 | 13.52948 | 6961 ft | 255 kts | 243° |
| 2026-05-06 11:27 | 51.02047 | 13.50421 | 7008 ft | 254 kts | 243° |
| 2026-05-06 11:27 | 51.01264 | 13.47873 | 7474 ft | 260 kts | 243° |
| 2026-05-06 11:27 | 51.00474 | 13.45297 | 8315 ft | 260 kts | 244° |
| 2026-05-06 11:28 | 51.00060 | 13.42469 | 9014 ft | 270 kts | 269° |
| 2026-05-06 11:28 | 51.00511 | 13.39545 | 9816 ft | 279 kts | 293° |
| 2026-05-06 11:28 | 51.01724 | 13.37080 | 10238 ft | 304 kts | 317° |
| 2026-05-06 11:28 | 51.03735 | 13.35603 | 10409 ft | 337 kts | 347° |
| 2026-05-06 11:29 | 51.06173 | 13.35736 | 10622 ft | 365 kts | 10° |
| 2026-05-06 11:29 | 51.08660 | 13.36819 | 11111 ft | 376 kts | 15° |
| 2026-05-06 11:29 | 51.11169 | 13.38113 | 11772 ft | 380 kts | 16° |
| 2026-05-06 11:29 | 51.13697 | 13.39441 | 12434 ft | 385 kts | 16° |
| 2026-05-06 11:30 | 51.15397 | 13.40314 | 12872 ft | 388 kts | 15° |
| 2026-05-06 11:30 | 51.17150 | 13.41193 | 13337 ft | 391 kts | 15° |